sensor_id;sensor_type;location;lat;lon;timestamp;P1;durP1;ratioP1;P2;durP2;ratioP2
23088;SDS011;11713;48.506;8.966;2022-12-20T00:00:16;59.23;;;35.33;;
23088;SDS011;11713;48.506;8.966;2022-12-20T00:02:43;55.60;;;34.13;;
23088;SDS011;11713;48.506;8.966;2022-12-20T00:05:09;53.67;;;34.83;;
23088;SDS011;11713;48.506;8.966;2022-12-20T00:07:35;52.33;;;34.77;;
23088;SDS011;11713;48.506;8.966;2022-12-20T00:10:01;55.50;;;35.00;;
23088;SDS011;11713;48.506;8.966;2022-12-20T00:12:27;52.23;;;34.93;;
23088;SDS011;11713;48.506;8.966;2022-12-20T00:14:53;50.47;;;33.77;;
23088;SDS011;11713;48.506;8.966;2022-12-20T00:17:20;59.97;;;36.20;;
23088;SDS011;11713;48.506;8.966;2022-12-20T00:19:45;53.30;;;33.57;;
23088;SDS011;11713;48.506;8.966;2022-12-20T00:22:11;53.10;;;34.03;;
23088;SDS011;11713;48.506;8.966;2022-12-20T00:24:37;55.37;;;34.13;;
23088;SDS011;11713;48.506;8.966;2022-12-20T00:27:03;55.70;;;34.30;;
23088;SDS011;11713;48.506;8.966;2022-12-20T00:29:29;54.83;;;33.73;;
23088;SDS011;11713;48.506;8.966;2022-12-20T00:31:55;54.73;;;33.90;;
23088;SDS011;11713;48.506;8.966;2022-12-20T00:34:21;51.97;;;33.17;;
23088;SDS011;11713;48.506;8.966;2022-12-20T00:36:47;71.97;;;41.60;;
23088;SDS011;11713;48.506;8.966;2022-12-20T00:39:13;66.27;;;39.30;;
23088;SDS011;11713;48.506;8.966;2022-12-20T00:41:39;69.17;;;40.07;;
23088;SDS011;11713;48.506;8.966;2022-12-20T00:44:05;69.27;;;40.57;;
23088;SDS011;11713;48.506;8.966;2022-12-20T00:46:31;72.23;;;42.87;;
23088;SDS011;11713;48.506;8.966;2022-12-20T00:48:58;70.73;;;42.90;;
23088;SDS011;11713;48.506;8.966;2022-12-20T00:51:26;73.30;;;42.87;;
23088;SDS011;11713;48.506;8.966;2022-12-20T00:53:53;75.57;;;44.87;;
23088;SDS011;11713;48.506;8.966;2022-12-20T00:56:19;68.90;;;43.77;;
23088;SDS011;11713;48.506;8.966;2022-12-20T00:58:45;75.70;;;45.03;;
23088;SDS011;11713;48.506;8.966;2022-12-20T01:01:22;77.57;;;44.57;;
23088;SDS011;11713;48.506;8.966;2022-12-20T01:03:55;70.00;;;39.20;;
23088;SDS011;11713;48.506;8.966;2022-12-20T01:06:21;71.33;;;42.23;;
23088;SDS011;11713;48.506;8.966;2022-12-20T01:08:49;70.00;;;39.97;;
23088;SDS011;11713;48.506;8.966;2022-12-20T01:11:17;67.70;;;40.10;;
23088;SDS011;11713;48.506;8.966;2022-12-20T01:13:48;71.63;;;38.87;;
23088;SDS011;11713;48.506;8.966;2022-12-20T01:16:17;62.83;;;38.20;;
23088;SDS011;11713;48.506;8.966;2022-12-20T01:18:45;65.90;;;41.30;;
23088;SDS011;11713;48.506;8.966;2022-12-20T01:21:12;67.37;;;41.57;;
23088;SDS011;11713;48.506;8.966;2022-12-20T01:23:39;67.97;;;40.17;;
23088;SDS011;11713;48.506;8.966;2022-12-20T01:26:06;61.43;;;37.43;;
23088;SDS011;11713;48.506;8.966;2022-12-20T01:28:37;56.83;;;35.73;;
23088;SDS011;11713;48.506;8.966;2022-12-20T01:31:05;64.33;;;38.13;;
23088;SDS011;11713;48.506;8.966;2022-12-20T01:33:32;63.27;;;39.17;;
23088;SDS011;11713;48.506;8.966;2022-12-20T01:36:01;60.67;;;37.60;;
23088;SDS011;11713;48.506;8.966;2022-12-20T01:38:29;66.40;;;38.87;;
23088;SDS011;11713;48.506;8.966;2022-12-20T01:40:55;60.70;;;36.33;;
23088;SDS011;11713;48.506;8.966;2022-12-20T01:43:25;54.17;;;34.97;;
23088;SDS011;11713;48.506;8.966;2022-12-20T01:46:10;59.67;;;35.77;;
23088;SDS011;11713;48.506;8.966;2022-12-20T01:48:37;54.03;;;33.93;;
23088;SDS011;11713;48.506;8.966;2022-12-20T01:51:05;54.77;;;34.40;;
23088;SDS011;11713;48.506;8.966;2022-12-20T01:53:31;50.90;;;32.20;;
23088;SDS011;11713;48.506;8.966;2022-12-20T01:56:01;57.23;;;35.40;;
23088;SDS011;11713;48.506;8.966;2022-12-20T01:58:30;62.43;;;38.13;;
23088;SDS011;11713;48.506;8.966;2022-12-20T02:00:58;66.10;;;39.33;;
23088;SDS011;11713;48.506;8.966;2022-12-20T02:03:23;68.63;;;40.43;;
23088;SDS011;11713;48.506;8.966;2022-12-20T02:05:50;65.00;;;37.93;;
23088;SDS011;11713;48.506;8.966;2022-12-20T02:08:17;57.47;;;36.97;;
23088;SDS011;11713;48.506;8.966;2022-12-20T02:14:06;64.97;;;40.00;;
23088;SDS011;11713;48.506;8.966;2022-12-20T02:16:25;59.17;;;36.40;;
23088;SDS011;11713;48.506;8.966;2022-12-20T02:19:01;58.23;;;36.33;;
23088;SDS011;11713;48.506;8.966;2022-12-20T02:21:54;59.60;;;36.90;;
23088;SDS011;11713;48.506;8.966;2022-12-20T02:24:51;63.13;;;35.17;;
23088;SDS011;11713;48.506;8.966;2022-12-20T02:27:40;56.70;;;34.60;;
23088;SDS011;11713;48.506;8.966;2022-12-20T02:30:15;59.60;;;35.80;;
23088;SDS011;11713;48.506;8.966;2022-12-20T02:32:45;62.87;;;35.43;;
23088;SDS011;11713;48.506;8.966;2022-12-20T02:35:23;58.40;;;35.27;;
23088;SDS011;11713;48.506;8.966;2022-12-20T02:37:52;57.53;;;34.97;;
23088;SDS011;11713;48.506;8.966;2022-12-20T02:40:24;59.47;;;36.00;;
23088;SDS011;11713;48.506;8.966;2022-12-20T02:42:57;57.73;;;34.70;;
23088;SDS011;11713;48.506;8.966;2022-12-20T02:45:31;59.30;;;35.50;;
23088;SDS011;11713;48.506;8.966;2022-12-20T02:48:06;53.40;;;33.23;;
23088;SDS011;11713;48.506;8.966;2022-12-20T02:50:39;51.37;;;31.90;;
23088;SDS011;11713;48.506;8.966;2022-12-20T02:53:11;56.33;;;32.13;;
23088;SDS011;11713;48.506;8.966;2022-12-20T02:58:26;53.33;;;30.77;;
23088;SDS011;11713;48.506;8.966;2022-12-20T03:00:55;51.33;;;30.80;;
23088;SDS011;11713;48.506;8.966;2022-12-20T03:03:23;48.70;;;30.17;;
23088;SDS011;11713;48.506;8.966;2022-12-20T03:05:52;50.87;;;29.83;;
23088;SDS011;11713;48.506;8.966;2022-12-20T03:08:21;45.90;;;29.67;;
23088;SDS011;11713;48.506;8.966;2022-12-20T03:10:48;50.80;;;30.23;;
23088;SDS011;11713;48.506;8.966;2022-12-20T03:13:15;46.53;;;30.23;;
23088;SDS011;11713;48.506;8.966;2022-12-20T03:15:49;52.30;;;31.73;;
23088;SDS011;11713;48.506;8.966;2022-12-20T03:18:15;54.47;;;32.63;;
23088;SDS011;11713;48.506;8.966;2022-12-20T03:20:42;55.63;;;32.80;;
23088;SDS011;11713;48.506;8.966;2022-12-20T03:23:08;55.73;;;32.43;;
23088;SDS011;11713;48.506;8.966;2022-12-20T03:25:34;48.83;;;31.10;;
23088;SDS011;11713;48.506;8.966;2022-12-20T03:28:03;57.90;;;32.73;;
23088;SDS011;11713;48.506;8.966;2022-12-20T03:30:29;46.73;;;29.87;;
23088;SDS011;11713;48.506;8.966;2022-12-20T03:32:55;45.10;;;30.17;;
23088;SDS011;11713;48.506;8.966;2022-12-20T03:35:22;46.57;;;29.00;;
23088;SDS011;11713;48.506;8.966;2022-12-20T03:37:48;49.20;;;28.97;;
23088;SDS011;11713;48.506;8.966;2022-12-20T03:40:14;45.87;;;29.70;;
23088;SDS011;11713;48.506;8.966;2022-12-20T03:42:40;46.43;;;29.10;;
23088;SDS011;11713;48.506;8.966;2022-12-20T03:45:07;49.60;;;30.77;;
23088;SDS011;11713;48.506;8.966;2022-12-20T03:47:33;49.37;;;30.03;;
23088;SDS011;11713;48.506;8.966;2022-12-20T03:50:00;51.03;;;30.13;;
23088;SDS011;11713;48.506;8.966;2022-12-20T03:52:29;47.33;;;28.10;;
23088;SDS011;11713;48.506;8.966;2022-12-20T03:54:55;43.13;;;28.03;;
23088;SDS011;11713;48.506;8.966;2022-12-20T03:57:28;44.77;;;28.77;;
23088;SDS011;11713;48.506;8.966;2022-12-20T03:59:55;42.03;;;27.07;;
23088;SDS011;11713;48.506;8.966;2022-12-20T04:02:21;42.13;;;25.83;;
23088;SDS011;11713;48.506;8.966;2022-12-20T04:04:48;38.83;;;24.43;;
23088;SDS011;11713;48.506;8.966;2022-12-20T04:07:14;40.30;;;23.90;;
23088;SDS011;11713;48.506;8.966;2022-12-20T04:09:44;36.50;;;22.57;;
23088;SDS011;11713;48.506;8.966;2022-12-20T04:12:12;36.03;;;22.37;;
23088;SDS011;11713;48.506;8.966;2022-12-20T04:14:38;37.60;;;23.23;;
23088;SDS011;11713;48.506;8.966;2022-12-20T04:17:05;34.73;;;22.13;;
23088;SDS011;11713;48.506;8.966;2022-12-20T04:19:32;34.00;;;20.33;;
23088;SDS011;11713;48.506;8.966;2022-12-20T04:21:58;32.37;;;21.50;;
23088;SDS011;11713;48.506;8.966;2022-12-20T04:24:30;34.47;;;21.63;;
23088;SDS011;11713;48.506;8.966;2022-12-20T04:27:08;38.70;;;24.97;;
23088;SDS011;11713;48.506;8.966;2022-12-20T04:29:36;37.60;;;23.57;;
23088;SDS011;11713;48.506;8.966;2022-12-20T04:32:04;34.43;;;23.17;;
23088;SDS011;11713;48.506;8.966;2022-12-20T04:34:30;34.77;;;22.80;;
23088;SDS011;11713;48.506;8.966;2022-12-20T04:36:56;38.33;;;24.17;;
23088;SDS011;11713;48.506;8.966;2022-12-20T04:39:35;37.97;;;22.73;;
23088;SDS011;11713;48.506;8.966;2022-12-20T04:42:24;34.47;;;22.47;;
23088;SDS011;11713;48.506;8.966;2022-12-20T04:44:52;35.17;;;22.20;;
23088;SDS011;11713;48.506;8.966;2022-12-20T04:47:22;35.17;;;22.47;;
23088;SDS011;11713;48.506;8.966;2022-12-20T04:49:49;36.30;;;23.60;;
23088;SDS011;11713;48.506;8.966;2022-12-20T04:52:15;34.33;;;22.23;;
23088;SDS011;11713;48.506;8.966;2022-12-20T04:55:00;33.57;;;21.80;;
23088;SDS011;11713;48.506;8.966;2022-12-20T04:57:30;34.90;;;22.40;;
23088;SDS011;11713;48.506;8.966;2022-12-20T04:59:57;36.47;;;24.53;;
23088;SDS011;11713;48.506;8.966;2022-12-20T05:02:23;35.87;;;23.13;;
23088;SDS011;11713;48.506;8.966;2022-12-20T05:04:52;35.23;;;22.97;;
23088;SDS011;11713;48.506;8.966;2022-12-20T05:07:18;38.93;;;24.37;;
23088;SDS011;11713;48.506;8.966;2022-12-20T05:09:50;38.93;;;24.63;;
23088;SDS011;11713;48.506;8.966;2022-12-20T05:12:19;37.63;;;25.77;;
23088;SDS011;11713;48.506;8.966;2022-12-20T05:14:45;41.60;;;26.73;;
23088;SDS011;11713;48.506;8.966;2022-12-20T05:17:14;43.37;;;26.63;;
23088;SDS011;11713;48.506;8.966;2022-12-20T05:19:42;45.73;;;27.27;;
23088;SDS011;11713;48.506;8.966;2022-12-20T05:22:10;39.40;;;25.00;;
23088;SDS011;11713;48.506;8.966;2022-12-20T05:25:10;40.03;;;23.93;;
23088;SDS011;11713;48.506;8.966;2022-12-20T05:27:58;39.57;;;25.07;;
23088;SDS011;11713;48.506;8.966;2022-12-20T05:30:35;38.27;;;22.60;;
23088;SDS011;11713;48.506;8.966;2022-12-20T05:33:02;39.07;;;23.63;;
23088;SDS011;11713;48.506;8.966;2022-12-20T05:35:29;35.27;;;22.03;;
23088;SDS011;11713;48.506;8.966;2022-12-20T05:38:02;40.60;;;24.53;;
23088;SDS011;11713;48.506;8.966;2022-12-20T05:40:29;35.70;;;23.30;;
23088;SDS011;11713;48.506;8.966;2022-12-20T05:42:55;32.40;;;21.17;;
23088;SDS011;11713;48.506;8.966;2022-12-20T05:45:29;37.23;;;23.00;;
23088;SDS011;11713;48.506;8.966;2022-12-20T05:48:01;32.87;;;19.73;;
23088;SDS011;11713;48.506;8.966;2022-12-20T05:50:29;28.63;;;18.63;;
23088;SDS011;11713;48.506;8.966;2022-12-20T05:53:21;28.33;;;17.67;;
23088;SDS011;11713;48.506;8.966;2022-12-20T05:55:51;24.90;;;15.23;;
23088;SDS011;11713;48.506;8.966;2022-12-20T05:58:23;27.30;;;17.13;;
23088;SDS011;11713;48.506;8.966;2022-12-20T06:00:59;29.27;;;18.57;;
23088;SDS011;11713;48.506;8.966;2022-12-20T06:03:27;21.40;;;15.23;;
23088;SDS011;11713;48.506;8.966;2022-12-20T06:05:54;26.67;;;17.17;;
23088;SDS011;11713;48.506;8.966;2022-12-20T06:08:26;25.07;;;15.87;;
23088;SDS011;11713;48.506;8.966;2022-12-20T07:19:56;39.40;;;24.60;;
23088;SDS011;11713;48.506;8.966;2022-12-20T07:22:23;46.07;;;28.50;;
23088;SDS011;11713;48.506;8.966;2022-12-20T07:24:52;44.70;;;27.70;;
23088;SDS011;11713;48.506;8.966;2022-12-20T07:27:26;39.57;;;26.90;;
23088;SDS011;11713;48.506;8.966;2022-12-20T07:29:52;46.10;;;29.70;;
23088;SDS011;11713;48.506;8.966;2022-12-20T07:32:18;48.10;;;31.67;;
23088;SDS011;11713;48.506;8.966;2022-12-20T07:34:44;50.33;;;31.63;;
23088;SDS011;11713;48.506;8.966;2022-12-20T07:37:14;47.57;;;30.50;;
23088;SDS011;11713;48.506;8.966;2022-12-20T07:39:40;49.20;;;30.03;;
23088;SDS011;11713;48.506;8.966;2022-12-20T07:42:06;48.70;;;28.33;;
23088;SDS011;11713;48.506;8.966;2022-12-20T07:44:40;49.53;;;29.90;;
23088;SDS011;11713;48.506;8.966;2022-12-20T07:47:07;48.20;;;28.47;;
23088;SDS011;11713;48.506;8.966;2022-12-20T07:49:35;52.17;;;30.40;;
23088;SDS011;11713;48.506;8.966;2022-12-20T07:52:01;49.10;;;31.53;;
23088;SDS011;11713;48.506;8.966;2022-12-20T07:54:30;45.47;;;28.60;;
23088;SDS011;11713;48.506;8.966;2022-12-20T07:57:10;47.23;;;29.23;;
23088;SDS011;11713;48.506;8.966;2022-12-20T07:59:51;44.00;;;28.30;;
23088;SDS011;11713;48.506;8.966;2022-12-20T08:02:21;43.80;;;27.80;;
23088;SDS011;11713;48.506;8.966;2022-12-20T08:04:52;43.07;;;28.03;;
23088;SDS011;11713;48.506;8.966;2022-12-20T08:07:19;41.00;;;26.80;;
23088;SDS011;11713;48.506;8.966;2022-12-20T08:09:45;40.57;;;26.53;;
23088;SDS011;11713;48.506;8.966;2022-12-20T08:12:12;41.50;;;25.53;;
23088;SDS011;11713;48.506;8.966;2022-12-20T08:14:42;41.73;;;28.53;;
23088;SDS011;11713;48.506;8.966;2022-12-20T08:17:08;42.30;;;27.00;;
23088;SDS011;11713;48.506;8.966;2022-12-20T08:19:36;34.70;;;24.00;;
23088;SDS011;11713;48.506;8.966;2022-12-20T08:22:03;35.50;;;23.37;;
23088;SDS011;11713;48.506;8.966;2022-12-20T08:24:30;32.07;;;22.13;;
23088;SDS011;11713;48.506;8.966;2022-12-20T08:27:00;30.20;;;21.97;;
23088;SDS011;11713;48.506;8.966;2022-12-20T08:29:26;33.47;;;21.90;;
23088;SDS011;11713;48.506;8.966;2022-12-20T08:31:52;32.17;;;22.13;;
23088;SDS011;11713;48.506;8.966;2022-12-20T08:34:18;32.20;;;22.87;;
23088;SDS011;11713;48.506;8.966;2022-12-20T08:36:44;31.77;;;21.47;;
23088;SDS011;11713;48.506;8.966;2022-12-20T08:39:10;35.03;;;23.57;;
23088;SDS011;11713;48.506;8.966;2022-12-20T08:41:36;35.70;;;22.23;;
23088;SDS011;11713;48.506;8.966;2022-12-20T08:44:05;34.10;;;23.43;;
23088;SDS011;11713;48.506;8.966;2022-12-20T08:46:31;38.20;;;26.43;;
23088;SDS011;11713;48.506;8.966;2022-12-20T08:48:57;45.97;;;30.03;;
23088;SDS011;11713;48.506;8.966;2022-12-20T08:51:23;42.40;;;29.00;;
23088;SDS011;11713;48.506;8.966;2022-12-20T08:53:49;40.13;;;27.30;;
23088;SDS011;11713;48.506;8.966;2022-12-20T08:56:16;36.77;;;26.47;;
23088;SDS011;11713;48.506;8.966;2022-12-20T08:58:44;39.10;;;26.63;;
23088;SDS011;11713;48.506;8.966;2022-12-20T09:01:12;36.97;;;26.07;;
23088;SDS011;11713;48.506;8.966;2022-12-20T09:03:42;42.17;;;27.87;;
23088;SDS011;11713;48.506;8.966;2022-12-20T09:06:11;39.53;;;27.33;;
23088;SDS011;11713;48.506;8.966;2022-12-20T09:08:40;40.87;;;28.17;;
23088;SDS011;11713;48.506;8.966;2022-12-20T09:13:36;34.03;;;23.17;;
23088;SDS011;11713;48.506;8.966;2022-12-20T09:16:03;36.87;;;25.70;;
23088;SDS011;11713;48.506;8.966;2022-12-20T09:18:37;40.37;;;27.93;;
23088;SDS011;11713;48.506;8.966;2022-12-20T09:21:05;42.00;;;26.40;;
23088;SDS011;11713;48.506;8.966;2022-12-20T09:23:33;33.67;;;24.33;;
23088;SDS011;11713;48.506;8.966;2022-12-20T09:26:01;41.27;;;26.33;;
23088;SDS011;11713;48.506;8.966;2022-12-20T09:28:29;38.13;;;25.53;;
23088;SDS011;11713;48.506;8.966;2022-12-20T09:30:59;27.93;;;20.10;;
23088;SDS011;11713;48.506;8.966;2022-12-20T09:33:26;26.80;;;19.23;;
23088;SDS011;11713;48.506;8.966;2022-12-20T09:35:53;25.67;;;18.27;;
23088;SDS011;11713;48.506;8.966;2022-12-20T09:38:19;24.93;;;18.50;;
23088;SDS011;11713;48.506;8.966;2022-12-20T09:40:49;27.10;;;18.47;;
23088;SDS011;11713;48.506;8.966;2022-12-20T09:43:18;30.60;;;18.93;;
23088;SDS011;11713;48.506;8.966;2022-12-20T09:45:45;24.77;;;17.63;;
23088;SDS011;11713;48.506;8.966;2022-12-20T09:48:17;22.03;;;15.63;;
23088;SDS011;11713;48.506;8.966;2022-12-20T09:56:42;26.53;;;19.03;;
23088;SDS011;11713;48.506;8.966;2022-12-20T09:59:19;25.47;;;18.50;;
23088;SDS011;11713;48.506;8.966;2022-12-20T10:01:47;29.13;;;21.23;;
23088;SDS011;11713;48.506;8.966;2022-12-20T10:15:22;29.03;;;20.47;;
23088;SDS011;11713;48.506;8.966;2022-12-20T10:21:10;29.00;;;20.70;;
23088;SDS011;11713;48.506;8.966;2022-12-20T10:23:55;28.03;;;20.23;;
23088;SDS011;11713;48.506;8.966;2022-12-20T10:26:26;28.60;;;20.90;;
23088;SDS011;11713;48.506;8.966;2022-12-20T10:28:52;31.17;;;21.43;;
23088;SDS011;11713;48.506;8.966;2022-12-20T10:31:18;28.53;;;21.10;;
23088;SDS011;11713;48.506;8.966;2022-12-20T10:33:44;27.43;;;20.00;;
23088;SDS011;11713;48.506;8.966;2022-12-20T10:38:47;28.80;;;21.53;;
23088;SDS011;11713;48.506;8.966;2022-12-20T10:41:18;30.57;;;22.57;;
23088;SDS011;11713;48.506;8.966;2022-12-20T10:43:47;31.83;;;22.87;;
23088;SDS011;11713;48.506;8.966;2022-12-20T10:46:17;30.50;;;21.90;;
23088;SDS011;11713;48.506;8.966;2022-12-20T10:48:44;32.60;;;23.23;;
23088;SDS011;11713;48.506;8.966;2022-12-20T10:51:19;30.57;;;21.67;;
23088;SDS011;11713;48.506;8.966;2022-12-20T10:53:51;30.93;;;21.53;;
23088;SDS011;11713;48.506;8.966;2022-12-20T11:01:32;32.07;;;21.60;;
23088;SDS011;11713;48.506;8.966;2022-12-20T11:14:26;38.53;;;27.47;;
23088;SDS011;11713;48.506;8.966;2022-12-20T11:16:53;44.97;;;29.30;;
23088;SDS011;11713;48.506;8.966;2022-12-20T11:22:06;39.83;;;29.63;;
23088;SDS011;11713;48.506;8.966;2022-12-20T11:27:23;38.80;;;27.53;;
23088;SDS011;11713;48.506;8.966;2022-12-20T11:43:40;37.40;;;27.73;;
23088;SDS011;11713;48.506;8.966;2022-12-20T11:46:46;39.90;;;28.00;;
23088;SDS011;11713;48.506;8.966;2022-12-20T11:52:03;41.57;;;28.97;;
23088;SDS011;11713;48.506;8.966;2022-12-20T11:55:16;39.73;;;28.37;;
23088;SDS011;11713;48.506;8.966;2022-12-20T11:58:00;44.50;;;33.80;;
23088;SDS011;11713;48.506;8.966;2022-12-20T12:00:35;44.47;;;32.50;;
23088;SDS011;11713;48.506;8.966;2022-12-20T12:06:03;53.70;;;38.97;;
23088;SDS011;11713;48.506;8.966;2022-12-20T12:08:47;55.07;;;38.37;;
23088;SDS011;11713;48.506;8.966;2022-12-20T12:11:39;50.00;;;37.30;;
23088;SDS011;11713;48.506;8.966;2022-12-20T12:14:15;47.80;;;34.10;;
23088;SDS011;11713;48.506;8.966;2022-12-20T12:17:06;48.60;;;34.63;;
23088;SDS011;11713;48.506;8.966;2022-12-20T12:19:45;43.57;;;31.83;;
23088;SDS011;11713;48.506;8.966;2022-12-20T12:22:16;44.67;;;30.10;;
23088;SDS011;11713;48.506;8.966;2022-12-20T12:24:50;40.93;;;29.23;;
23088;SDS011;11713;48.506;8.966;2022-12-20T12:27:24;43.23;;;29.87;;
23088;SDS011;11713;48.506;8.966;2022-12-20T12:29:52;35.63;;;25.97;;
23088;SDS011;11713;48.506;8.966;2022-12-20T12:46:10;43.23;;;30.97;;
23088;SDS011;11713;48.506;8.966;2022-12-20T12:51:35;52.47;;;34.97;;
23088;SDS011;11713;48.506;8.966;2022-12-20T12:54:15;46.33;;;32.37;;
23088;SDS011;11713;48.506;8.966;2022-12-20T12:57:06;46.30;;;31.10;;
23088;SDS011;11713;48.506;8.966;2022-12-20T12:59:40;42.57;;;29.97;;
23088;SDS011;11713;48.506;8.966;2022-12-20T13:05:29;47.23;;;30.90;;
23088;SDS011;11713;48.506;8.966;2022-12-20T13:07:45;52.70;;;33.00;;
23088;SDS011;11713;48.506;8.966;2022-12-20T13:17:55;54.27;;;36.97;;
23088;SDS011;11713;48.506;8.966;2022-12-20T13:20:28;52.50;;;35.00;;
23088;SDS011;11713;48.506;8.966;2022-12-20T13:25:37;52.93;;;33.43;;
23088;SDS011;11713;48.506;8.966;2022-12-20T13:33:19;52.83;;;34.30;;
23088;SDS011;11713;48.506;8.966;2022-12-20T13:43:56;53.10;;;36.23;;
23088;SDS011;11713;48.506;8.966;2022-12-20T13:49:36;52.23;;;33.60;;
23088;SDS011;11713;48.506;8.966;2022-12-20T13:54:46;48.17;;;32.47;;
23088;SDS011;11713;48.506;8.966;2022-12-20T13:57:20;54.07;;;36.27;;
23088;SDS011;11713;48.506;8.966;2022-12-20T14:00:30;50.07;;;34.30;;
23088;SDS011;11713;48.506;8.966;2022-12-20T14:02:55;45.43;;;31.40;;
23088;SDS011;11713;48.506;8.966;2022-12-20T14:05:22;44.57;;;30.73;;
23088;SDS011;11713;48.506;8.966;2022-12-20T14:07:55;107.20;;;64.57;;
23088;SDS011;11713;48.506;8.966;2022-12-20T14:10:26;101.50;;;61.73;;
23088;SDS011;11713;48.506;8.966;2022-12-20T14:12:54;85.57;;;53.03;;
23088;SDS011;11713;48.506;8.966;2022-12-20T14:17:51;68.93;;;45.27;;
23088;SDS011;11713;48.506;8.966;2022-12-20T14:20:20;48.80;;;35.67;;
23088;SDS011;11713;48.506;8.966;2022-12-20T14:22:56;41.87;;;30.80;;
23088;SDS011;11713;48.506;8.966;2022-12-20T14:25:47;35.47;;;25.53;;
23088;SDS011;11713;48.506;8.966;2022-12-20T14:28:29;35.37;;;24.80;;
23088;SDS011;11713;48.506;8.966;2022-12-20T14:31:04;33.80;;;23.57;;
23088;SDS011;11713;48.506;8.966;2022-12-20T14:33:34;29.17;;;22.13;;
23088;SDS011;11713;48.506;8.966;2022-12-20T14:38:40;29.13;;;21.97;;
23088;SDS011;11713;48.506;8.966;2022-12-20T14:43:58;29.50;;;22.23;;
23088;SDS011;11713;48.506;8.966;2022-12-20T14:49:48;33.13;;;23.07;;
23088;SDS011;11713;48.506;8.966;2022-12-20T14:52:34;44.83;;;30.83;;
23088;SDS011;11713;48.506;8.966;2022-12-20T14:55:13;48.13;;;32.57;;
23088;SDS011;11713;48.506;8.966;2022-12-20T14:57:46;45.80;;;30.83;;
23088;SDS011;11713;48.506;8.966;2022-12-20T15:10:41;44.03;;;30.40;;
23088;SDS011;11713;48.506;8.966;2022-12-20T15:16:24;35.27;;;25.03;;
23088;SDS011;11713;48.506;8.966;2022-12-20T15:23:54;42.47;;;30.27;;
23088;SDS011;11713;48.506;8.966;2022-12-20T15:26:23;43.77;;;29.03;;
23088;SDS011;11713;48.506;8.966;2022-12-20T15:28:52;43.47;;;29.90;;
23088;SDS011;11713;48.506;8.966;2022-12-20T15:31:19;51.43;;;33.87;;
23088;SDS011;11713;48.506;8.966;2022-12-20T15:33:46;47.40;;;31.53;;
23088;SDS011;11713;48.506;8.966;2022-12-20T15:36:15;48.73;;;32.40;;
23088;SDS011;11713;48.506;8.966;2022-12-20T15:38:43;51.80;;;36.10;;
23088;SDS011;11713;48.506;8.966;2022-12-20T15:41:13;49.50;;;34.80;;
23088;SDS011;11713;48.506;8.966;2022-12-20T15:43:47;52.17;;;38.37;;
23088;SDS011;11713;48.506;8.966;2022-12-20T15:46:24;54.30;;;38.20;;
23088;SDS011;11713;48.506;8.966;2022-12-20T15:48:50;67.77;;;43.10;;
23088;SDS011;11713;48.506;8.966;2022-12-20T15:51:22;58.90;;;39.57;;
23088;SDS011;11713;48.506;8.966;2022-12-20T15:53:52;52.57;;;36.13;;
23088;SDS011;11713;48.506;8.966;2022-12-20T15:56:19;56.30;;;36.73;;
23088;SDS011;11713;48.506;8.966;2022-12-20T15:58:49;51.07;;;33.43;;
23088;SDS011;11713;48.506;8.966;2022-12-20T16:01:21;47.67;;;33.17;;
23088;SDS011;11713;48.506;8.966;2022-12-20T16:03:51;46.03;;;33.83;;
23088;SDS011;11713;48.506;8.966;2022-12-20T16:06:18;48.73;;;34.73;;
23088;SDS011;11713;48.506;8.966;2022-12-20T16:08:45;49.57;;;35.30;;
23088;SDS011;11713;48.506;8.966;2022-12-20T16:11:19;46.47;;;33.17;;
23088;SDS011;11713;48.506;8.966;2022-12-20T16:13:52;43.80;;;31.20;;
23088;SDS011;11713;48.506;8.966;2022-12-20T16:16:20;42.67;;;30.37;;
23088;SDS011;11713;48.506;8.966;2022-12-20T16:18:59;48.20;;;32.40;;
23088;SDS011;11713;48.506;8.966;2022-12-20T16:21:26;51.63;;;33.97;;
23088;SDS011;11713;48.506;8.966;2022-12-20T16:24:00;43.67;;;31.63;;
23088;SDS011;11713;48.506;8.966;2022-12-20T16:26:27;50.47;;;34.07;;
23088;SDS011;11713;48.506;8.966;2022-12-20T16:28:53;63.23;;;37.43;;
23088;SDS011;11713;48.506;8.966;2022-12-20T16:33:58;75.53;;;43.00;;
23088;SDS011;11713;48.506;8.966;2022-12-20T16:36:27;68.57;;;42.37;;
23088;SDS011;11713;48.506;8.966;2022-12-20T16:38:54;69.53;;;43.20;;
23088;SDS011;11713;48.506;8.966;2022-12-20T16:41:24;89.33;;;47.13;;
23088;SDS011;11713;48.506;8.966;2022-12-20T16:43:53;96.80;;;51.43;;
23088;SDS011;11713;48.506;8.966;2022-12-20T16:46:21;104.60;;;53.07;;
23088;SDS011;11713;48.506;8.966;2022-12-20T16:48:51;92.97;;;49.87;;
23088;SDS011;11713;48.506;8.966;2022-12-20T16:53:54;79.80;;;48.70;;
23088;SDS011;11713;48.506;8.966;2022-12-20T16:56:25;81.30;;;49.97;;
23088;SDS011;11713;48.506;8.966;2022-12-20T16:58:52;79.67;;;49.80;;
23088;SDS011;11713;48.506;8.966;2022-12-20T17:01:27;75.03;;;48.17;;
23088;SDS011;11713;48.506;8.966;2022-12-20T17:03:57;91.17;;;56.70;;
23088;SDS011;11713;48.506;8.966;2022-12-20T17:06:23;96.27;;;58.13;;
23088;SDS011;11713;48.506;8.966;2022-12-20T17:08:49;84.23;;;54.43;;
23088;SDS011;11713;48.506;8.966;2022-12-20T17:13:43;78.33;;;51.67;;
23088;SDS011;11713;48.506;8.966;2022-12-20T17:16:11;67.87;;;45.10;;
23088;SDS011;11713;48.506;8.966;2022-12-20T17:18:39;73.43;;;45.90;;
23088;SDS011;11713;48.506;8.966;2022-12-20T17:23:50;46.30;;;32.53;;
23088;SDS011;11713;48.506;8.966;2022-12-20T17:26:21;52.33;;;35.93;;
23088;SDS011;11713;48.506;8.966;2022-12-20T17:28:51;46.17;;;31.37;;
23088;SDS011;11713;48.506;8.966;2022-12-20T17:31:25;48.57;;;34.60;;
23088;SDS011;11713;48.506;8.966;2022-12-20T17:34:03;45.13;;;31.27;;
23088;SDS011;11713;48.506;8.966;2022-12-20T17:36:30;44.27;;;29.93;;
23088;SDS011;11713;48.506;8.966;2022-12-20T17:38:56;47.40;;;33.00;;
23088;SDS011;11713;48.506;8.966;2022-12-20T17:41:23;48.47;;;33.60;;
23088;SDS011;11713;48.506;8.966;2022-12-20T17:43:54;45.57;;;31.73;;
23088;SDS011;11713;48.506;8.966;2022-12-20T17:46:21;47.73;;;32.80;;
23088;SDS011;11713;48.506;8.966;2022-12-20T17:48:48;52.20;;;36.30;;
23088;SDS011;11713;48.506;8.966;2022-12-20T17:51:18;49.97;;;37.23;;
23088;SDS011;11713;48.506;8.966;2022-12-20T17:53:47;44.03;;;32.20;;
23088;SDS011;11713;48.506;8.966;2022-12-20T17:56:24;48.70;;;32.33;;
23088;SDS011;11713;48.506;8.966;2022-12-20T17:58:56;45.33;;;31.37;;
23088;SDS011;11713;48.506;8.966;2022-12-20T18:01:27;42.00;;;28.83;;
23088;SDS011;11713;48.506;8.966;2022-12-20T18:03:55;41.67;;;29.60;;
23088;SDS011;11713;48.506;8.966;2022-12-20T18:06:22;42.53;;;29.97;;
23088;SDS011;11713;48.506;8.966;2022-12-20T18:08:53;45.13;;;32.37;;
23088;SDS011;11713;48.506;8.966;2022-12-20T18:11:24;47.03;;;34.27;;
23088;SDS011;11713;48.506;8.966;2022-12-20T18:13:54;54.23;;;37.03;;
23088;SDS011;11713;48.506;8.966;2022-12-20T18:16:23;53.00;;;37.27;;
23088;SDS011;11713;48.506;8.966;2022-12-20T18:18:50;51.17;;;34.63;;
23088;SDS011;11713;48.506;8.966;2022-12-20T18:21:17;53.63;;;35.83;;
23088;SDS011;11713;48.506;8.966;2022-12-20T18:23:44;47.87;;;33.87;;
23088;SDS011;11713;48.506;8.966;2022-12-20T18:26:21;44.13;;;32.13;;
23088;SDS011;11713;48.506;8.966;2022-12-20T18:28:56;43.43;;;32.50;;